createdAt,value
2023-02-18T00:01:37.177Z,100341.34
2023-02-18T00:04:04.704Z,100344.91
2023-02-18T00:06:36.168Z,100342.00
2023-02-18T00:09:05.167Z,100334.09
2023-02-18T00:11:34.480Z,100345.34
2023-02-18T00:14:03.883Z,100347.38
2023-02-18T00:16:31.622Z,100339.03
2023-02-18T00:19:04.421Z,100342.75
2023-02-18T00:21:33.050Z,100340.34
2023-02-18T00:24:00.107Z,100345.34
2023-02-18T00:26:30.704Z,100334.00
2023-02-18T00:28:57.420Z,100325.28
2023-02-18T00:31:27.394Z,100322.59
2023-02-18T00:33:55.287Z,100324.72
2023-02-18T00:36:23.357Z,100323.69
2023-02-18T00:38:53.156Z,100320.81
2023-02-18T00:41:21.264Z,100325.41
2023-02-18T00:43:51.505Z,100310.09
2023-02-18T00:46:21.866Z,100308.22
2023-02-18T00:48:49.363Z,100310.66
2023-02-18T00:53:42.593Z,100313.22
2023-02-18T00:56:10.433Z,100315.34
2023-02-18T00:58:40.537Z,100325.25
2023-02-18T01:01:08.875Z,100320.69
2023-02-18T01:03:36.966Z,100331.84
2023-02-18T01:06:05.967Z,100335.03
2023-02-18T01:08:33.906Z,100334.16
2023-02-18T01:11:00.830Z,100339.63
2023-02-18T01:13:31.726Z,100340.53
2023-02-18T01:15:58.744Z,100349.00
2023-02-18T01:18:26.854Z,100347.09
2023-02-18T01:20:53.827Z,100343.75
2023-02-18T01:23:21.048Z,100342.09
2023-02-18T01:25:47.743Z,100334.97
2023-02-18T01:30:42.786Z,100342.97
2023-02-18T01:33:10.117Z,100347.31
2023-02-18T01:35:40.268Z,100337.97
2023-02-18T01:38:07.805Z,100343.94
2023-02-18T01:40:34.549Z,100343.97
2023-02-18T01:43:03.040Z,100341.44
2023-02-18T01:45:35.758Z,100329.38
2023-02-18T01:48:12.046Z,100329.22
2023-02-18T01:51:07.581Z,100326.31
2023-02-18T01:53:55.718Z,100327.31
2023-02-18T01:56:41.589Z,100325.72
2023-02-18T01:59:14.185Z,100325.28
2023-02-18T02:01:44.206Z,100324.00
2023-02-18T02:04:11.576Z,100321.03
2023-02-18T02:06:38.345Z,100318.16
2023-02-18T02:09:08.576Z,100318.53
2023-02-18T02:12:07.203Z,100315.91
2023-02-18T02:14:58.017Z,100300.78
2023-02-18T02:17:44.449Z,100306.19
2023-02-18T02:20:17.518Z,100299.78
2023-02-18T02:23:17.636Z,100314.75
2023-02-18T02:26:12.312Z,100311.03
2023-02-18T02:29:17.713Z,100300.47
2023-02-18T02:31:58.191Z,100294.66
2023-02-18T02:34:32.433Z,100289.31
2023-02-18T02:37:16.749Z,100279.13
2023-02-18T02:40:04.400Z,100276.56
2023-02-18T02:43:02.173Z,100278.63
2023-02-18T02:45:49.109Z,100278.63
2023-02-18T02:48:17.866Z,100281.97
2023-02-18T02:50:53.503Z,100275.81
2023-02-18T02:53:26.862Z,100285.38
2023-02-18T02:55:55.242Z,100283.50
2023-02-18T02:58:34.355Z,100278.97
2023-02-18T03:04:09.699Z,100279.91
2023-02-18T03:07:17.573Z,100280.81
2023-02-18T03:10:07.829Z,100271.25
2023-02-18T03:12:43.968Z,100266.66
2023-02-18T03:15:18.883Z,100261.06
2023-02-18T03:20:53.631Z,100278.50
2023-02-18T03:23:32.995Z,100281.59
2023-02-18T03:26:00.245Z,100279.91
2023-02-18T03:28:34.054Z,100285.38
2023-02-18T03:31:08.793Z,100278.63
2023-02-18T03:33:43.309Z,100280.03
2023-02-18T03:36:11.361Z,100273.13
2023-02-18T03:38:49.104Z,100280.09
2023-02-18T03:43:51.545Z,100274.78
2023-02-18T03:46:18.731Z,100276.84
2023-02-18T03:48:55.312Z,100277.41
2023-02-18T03:51:25.464Z,100281.59
2023-02-18T03:53:52.228Z,100279.66
2023-02-18T03:56:21.663Z,100277.16
2023-02-18T03:58:48.437Z,100263.13
2023-02-18T04:01:15.346Z,100269.34
2023-02-18T04:03:42.010Z,100277.88
2023-02-18T04:06:09.029Z,100279.13
2023-02-18T04:08:36.321Z,100281.19
2023-02-18T04:11:03.309Z,100280.19
2023-02-18T04:13:30.201Z,100277.59
2023-02-18T04:15:57.402Z,100276.56
2023-02-18T04:18:24.392Z,100275.19
2023-02-18T04:20:51.853Z,100273.50
2023-02-18T04:23:18.618Z,100273.63
2023-02-18T04:25:45.310Z,100269.66
2023-02-18T04:28:14.202Z,100276.63
2023-02-18T04:30:41.580Z,100279.31
2023-02-18T04:33:08.468Z,100279.94
2023-02-18T04:35:36.905Z,100278.94
2023-02-18T04:38:04.302Z,100279.13
2023-02-18T04:40:31.326Z,100271.22
2023-02-18T04:42:59.596Z,100277.06
2023-02-18T04:45:27.536Z,100278.38
2023-02-18T04:47:56.699Z,100277.16
2023-02-18T04:50:24.930Z,100276.31
2023-02-18T04:52:51.626Z,100268.25
2023-02-18T04:55:18.585Z,100272.78
2023-02-18T04:57:45.376Z,100270.94
2023-02-18T05:00:17.689Z,100271.97
2023-02-18T05:02:45.127Z,100282.16
2023-02-18T05:05:12.484Z,100270.09
2023-02-18T05:07:39.538Z,100272.59
2023-02-18T05:10:07.410Z,100269.72
2023-02-18T05:12:37.748Z,100267.22
2023-02-18T05:15:05.265Z,100267.59
2023-02-18T05:17:32.206Z,100266.31
2023-02-18T05:19:58.962Z,100260.94
2023-02-18T05:22:25.906Z,100260.56
2023-02-18T05:24:52.940Z,100254.25
2023-02-18T05:27:20.208Z,100248.13
2023-02-18T05:29:46.964Z,100248.88
2023-02-18T05:32:13.755Z,100252.22
2023-02-18T05:34:40.683Z,100253.25
2023-02-18T05:37:07.659Z,100247.66
2023-02-18T05:39:34.339Z,100248.38
2023-02-18T05:42:01.300Z,100249.03
2023-02-18T05:44:31.024Z,100241.97
2023-02-18T05:47:05.510Z,100240.31
2023-02-18T05:49:34.091Z,100240.78
2023-02-18T05:52:01.842Z,100255.97
2023-02-18T05:54:28.733Z,100239.59
2023-02-18T05:56:58.688Z,100237.53
2023-02-18T05:59:25.573Z,100216.22
2023-02-18T06:01:58.578Z,100240.38
2023-02-18T06:04:25.653Z,100220.06
2023-02-18T06:06:52.729Z,100221.84
2023-02-18T06:09:23.041Z,100224.94
2023-02-18T06:11:50.105Z,100229.75
2023-02-18T06:14:17.846Z,100234.94
2023-02-18T06:16:53.519Z,100236.59
2023-02-18T06:19:20.292Z,100238.28
2023-02-18T06:21:47.640Z,100236.97
2023-02-18T06:24:14.618Z,100239.28
2023-02-18T06:26:43.668Z,100235.31
2023-02-18T06:29:10.402Z,100225.84
2023-02-18T06:31:37.281Z,100234.16
2023-02-18T06:34:07.456Z,100231.66
2023-02-18T06:36:34.435Z,100234.16
2023-02-18T06:39:07.275Z,100225.84
2023-02-18T06:41:34.528Z,100208.47
2023-02-18T06:44:01.486Z,100217.38
2023-02-18T06:46:28.191Z,100207.00
2023-02-18T06:48:54.924Z,100203.94
2023-02-18T06:51:21.930Z,100198.19
2023-02-18T06:53:55.495Z,100204.84
2023-02-18T06:56:22.169Z,100194.94
2023-02-18T06:58:48.894Z,100178.00
2023-02-18T07:01:17.916Z,100183.00
2023-02-18T07:03:44.828Z,100180.97
2023-02-18T07:06:11.753Z,100194.28
2023-02-18T07:08:40.062Z,100191.34
2023-02-18T07:11:07.637Z,100181.44
2023-02-18T07:13:37.617Z,100177.31
2023-02-18T07:16:04.911Z,100186.81
2023-02-18T07:18:32.208Z,100192.19
2023-02-18T07:20:59.081Z,100196.75
2023-02-18T07:23:25.772Z,100192.84
2023-02-18T07:25:52.761Z,100186.44
2023-02-18T07:28:19.465Z,100186.63
2023-02-18T07:30:46.193Z,100195.00
2023-02-18T07:33:14.406Z,100188.00
2023-02-18T07:35:41.171Z,100191.69
2023-02-18T07:38:09.008Z,100183.84
2023-02-18T07:40:35.717Z,100177.38
2023-02-18T07:43:03.024Z,100171.84
2023-02-18T07:45:29.916Z,100173.50
2023-02-18T07:47:56.750Z,100177.66
2023-02-18T07:50:23.397Z,100166.88
2023-02-18T07:52:52.177Z,100168.97
2023-02-18T07:55:19.220Z,100163.56
2023-02-18T07:57:59.205Z,100168.41
2023-02-18T08:00:26.007Z,100166.34
2023-02-18T08:02:52.939Z,100167.38
2023-02-18T08:05:19.728Z,100170.28
2023-02-18T08:07:46.474Z,100170.22
2023-02-18T08:12:42.690Z,100162.81
2023-02-18T08:15:09.649Z,100158.09
2023-02-18T08:17:36.608Z,100157.50
2023-02-18T08:20:03.508Z,100157.69
2023-02-18T08:22:30.285Z,100150.47
2023-02-18T08:24:57.424Z,100159.00
2023-02-18T08:27:24.740Z,100152.19
2023-02-18T08:29:51.741Z,100145.53
2023-02-18T08:32:18.502Z,100147.22
2023-02-18T08:34:45.531Z,100130.59
2023-02-18T08:37:12.252Z,100121.69
2023-02-18T08:39:40.102Z,100112.78
2023-02-18T08:42:07.791Z,100108.22
2023-02-18T08:44:34.656Z,100103.66
2023-02-18T08:47:01.730Z,100107.81
2023-02-18T08:49:28.597Z,100097.41
2023-02-18T08:51:55.969Z,100099.09
2023-02-18T08:54:23.053Z,100103.66
2023-02-18T08:56:49.853Z,100103.44
2023-02-18T08:59:18.260Z,100100.78
2023-02-18T09:01:45.081Z,100107.59
2023-02-18T09:04:11.912Z,100111.34
2023-02-18T09:06:39.474Z,100118.19
2023-02-18T09:09:08.205Z,100116.72
2023-02-18T09:11:34.999Z,100126.66
2023-02-18T09:14:01.735Z,100129.59
2023-02-18T09:16:30.293Z,100117.56
2023-02-18T09:18:59.114Z,100123.38
2023-02-18T09:21:27.057Z,100122.78
2023-02-18T09:23:53.808Z,100131.06
2023-02-18T09:26:23.233Z,100135.19
2023-02-18T09:28:51.115Z,100125.25
2023-02-18T09:31:20.907Z,100124.00
2023-02-18T09:33:53.824Z,100118.41
2023-02-18T09:36:21.426Z,100112.38
2023-02-18T09:38:48.738Z,100120.31
2023-02-18T09:41:20.175Z,100121.97
2023-02-18T09:43:54.441Z,100111.38
2023-02-18T09:46:31.467Z,100123.22
2023-02-18T09:49:01.527Z,100118.00
2023-02-18T09:51:28.354Z,100123.56
2023-02-18T09:53:55.169Z,100117.97
2023-02-18T09:56:34.919Z,100117.97
2023-02-18T09:59:06.295Z,100114.78
2023-02-18T10:01:37.851Z,100121.03
2023-02-18T10:04:17.880Z,100129.56
2023-02-18T10:06:51.000Z,100118.56
2023-02-18T10:09:42.079Z,100113.16
2023-02-18T10:12:20.844Z,100111.13
2023-02-18T10:14:57.716Z,100116.28
2023-02-18T10:17:27.733Z,100091.31
2023-02-18T10:19:56.406Z,100096.50
2023-02-18T10:22:26.140Z,100088.22
2023-02-18T10:25:02.854Z,100087.78
2023-02-18T10:27:31.242Z,100092.56
2023-02-18T10:30:17.881Z,100086.19
2023-02-18T10:32:45.893Z,100094.66
2023-02-18T10:35:17.868Z,100101.53
2023-02-18T10:40:59.693Z,100100.31
2023-02-18T10:43:45.210Z,100098.66
2023-02-18T10:48:48.097Z,100103.66
2023-02-18T10:51:17.943Z,100106.16
2023-02-18T10:53:47.111Z,100100.13
2023-02-18T10:56:17.970Z,100087.47
2023-02-18T10:58:48.397Z,100084.13
2023-02-18T11:01:18.871Z,100084.94
2023-02-18T11:04:07.103Z,100088.28
2023-02-18T11:06:46.764Z,100086.19
2023-02-18T11:09:16.901Z,100074.94
2023-02-18T11:11:45.678Z,100083.84
2023-02-18T11:14:17.865Z,100083.19
2023-02-18T11:16:47.275Z,100073.44
2023-02-18T11:19:17.046Z,100074.47
2023-02-18T11:21:44.279Z,100069.31
2023-02-18T11:24:17.965Z,100062.03
2023-02-18T11:26:44.988Z,100065.97
2023-02-18T11:29:16.947Z,100076.97
2023-02-18T11:31:53.372Z,100038.72
2023-02-18T11:34:31.430Z,100043.00
2023-02-18T11:37:18.591Z,100050.34
2023-02-18T11:39:50.710Z,100051.78
2023-02-18T11:42:17.930Z,100035.44
2023-02-18T11:44:52.999Z,100027.03
2023-02-18T11:47:24.151Z,100049.03
2023-02-18T11:50:08.963Z,100033.44
2023-02-18T11:52:47.141Z,100021.16
2023-02-18T11:55:17.118Z,100014.41
2023-02-18T11:57:54.015Z,100015.81
2023-02-18T12:00:27.056Z,100015.06
2023-02-18T12:02:57.152Z,100011.56
2023-02-18T12:05:30.370Z,100018.16
2023-02-18T12:08:07.049Z,100051.13
2023-02-18T12:10:39.460Z,100042.44
2023-02-18T12:13:21.593Z,100031.56
2023-02-18T12:16:18.128Z,100028.84
2023-02-18T12:18:56.836Z,100031.31
2023-02-18T12:21:39.027Z,100020.84
2023-02-18T12:24:18.523Z,100025.13
2023-02-18T12:27:05.651Z,100013.97
2023-02-18T12:29:33.675Z,99979.94
2023-02-18T12:32:18.117Z,99979.16
2023-02-18T12:35:05.022Z,99982.06
2023-02-18T12:37:54.379Z,99988.81
2023-02-18T12:40:36.330Z,99982.81
2023-02-18T12:43:17.986Z,99988.38
2023-02-18T12:46:03.524Z,99986.00
2023-02-18T12:48:53.353Z,100003.97
2023-02-18T12:51:22.968Z,99965.25
2023-02-18T12:53:57.400Z,99982.88
2023-02-18T12:56:46.253Z,99983.66
2023-02-18T12:59:18.164Z,99982.34
2023-02-18T13:02:00.326Z,99989.41
2023-02-18T13:05:02.979Z,99976.06
2023-02-18T13:07:51.596Z,100010.34
2023-02-18T13:10:38.256Z,99977.47
2023-02-18T13:16:06.654Z,99984.97
2023-02-18T13:18:40.946Z,99984.34
2023-02-18T13:21:12.693Z,99985.84
2023-02-18T13:23:57.699Z,99984.50
2023-02-18T13:26:26.029Z,99983.84
2023-02-18T13:29:18.167Z,99977.03
2023-02-18T13:32:00.842Z,99974.09
2023-02-18T13:34:34.421Z,99982.06
2023-02-18T13:37:11.320Z,99990.47
2023-02-18T13:39:46.230Z,99998.50
2023-02-18T13:42:17.975Z,99998.00
2023-02-18T13:44:57.145Z,99975.97
2023-02-18T13:47:47.516Z,99989.72
2023-02-18T13:50:18.018Z,99984.34
2023-02-18T13:52:44.886Z,99982.44
2023-02-18T13:55:17.051Z,99976.03
2023-02-18T14:00:26.432Z,99986.56
2023-02-18T14:03:02.843Z,100006.28
2023-02-18T14:05:41.184Z,99995.53
2023-02-18T14:10:42.815Z,99981.81
2023-02-18T14:15:58.369Z,99986.13
2023-02-18T14:19:01.478Z,99980.84
2023-02-18T14:21:43.830Z,99988.34
2023-02-18T14:24:12.369Z,99996.88
2023-02-18T14:26:49.703Z,99997.19
2023-02-18T14:29:19.248Z,99994.78
2023-02-18T14:31:50.518Z,99991.13
2023-02-18T14:34:18.298Z,100002.47
2023-02-18T14:37:12.393Z,99997.56
2023-02-18T14:40:18.061Z,99997.34
2023-02-18T14:42:59.425Z,99987.81
2023-02-18T14:45:33.672Z,99993.63
2023-02-18T14:48:03.446Z,100001.91
2023-02-18T14:50:38.694Z,99979.00
2023-02-18T14:53:14.936Z,99997.50
2023-02-18T14:56:09.281Z,99995.22
2023-02-18T14:58:43.827Z,99991.19
2023-02-18T15:01:17.114Z,99984.81
2023-02-18T15:03:43.930Z,99995.22
2023-02-18T15:06:17.983Z,100001.81
2023-02-18T15:08:44.795Z,99996.09
2023-02-18T15:11:12.090Z,100001.53
2023-02-18T15:13:44.466Z,100003.19
2023-02-18T15:16:17.095Z,100004.00
2023-02-18T15:18:49.332Z,100005.69
2023-02-18T15:21:17.108Z,100008.38
2023-02-18T15:23:44.094Z,100014.63
2023-02-18T15:26:17.104Z,100009.44
2023-02-18T15:29:05.675Z,100013.19
2023-02-18T15:31:38.997Z,100004.88
2023-02-18T15:34:20.829Z,100008.41
2023-02-18T15:36:52.716Z,100023.97
2023-02-18T15:39:20.831Z,100020.66
2023-02-18T15:41:48.004Z,100023.75
2023-02-18T15:44:18.134Z,100007.78
2023-02-18T15:46:45.304Z,100014.00
2023-02-18T15:51:44.312Z,100013.16
2023-02-18T15:54:18.183Z,100014.41
2023-02-18T15:56:50.249Z,100011.09
2023-02-18T15:59:18.231Z,100007.56
2023-02-18T16:01:50.180Z,100012.31
2023-02-18T16:04:18.137Z,100023.47
2023-02-18T16:06:49.314Z,100021.78
2023-02-18T16:09:18.253Z,100022.63
2023-02-18T16:11:51.289Z,100018.28
2023-02-18T16:14:28.585Z,100015.16
2023-02-18T16:17:18.012Z,100020.53
2023-02-18T16:20:03.536Z,100033.00
2023-02-18T16:22:30.927Z,100029.84
2023-02-18T16:25:00.601Z,100030.44
2023-02-18T16:27:36.552Z,100032.09
2023-02-18T16:32:43.138Z,100025.47
2023-02-18T16:35:10.257Z,100028.31
2023-02-18T16:37:39.908Z,100030.63
2023-02-18T16:40:18.063Z,100032.03
2023-02-18T16:42:44.748Z,100034.53
2023-02-18T16:45:14.832Z,100046.13
2023-02-18T16:47:43.401Z,100039.88
2023-02-18T16:50:18.127Z,100043.22
2023-02-18T16:52:44.880Z,100039.44
2023-02-18T16:55:18.759Z,100046.06
2023-02-18T16:57:48.237Z,100041.88
2023-02-18T17:02:48.722Z,100043.25
2023-02-18T17:05:26.357Z,100038.00
2023-02-18T17:07:54.257Z,100046.66
2023-02-18T17:10:21.335Z,100062.22
2023-02-18T17:12:48.140Z,100055.31
2023-02-18T17:15:18.088Z,100054.53
2023-02-18T17:17:47.569Z,100058.63
2023-02-18T17:20:15.151Z,100076.25
2023-02-18T17:22:42.566Z,100068.69
2023-02-18T17:25:18.369Z,100080.09
2023-02-18T17:27:47.771Z,100081.97
2023-02-18T17:32:43.859Z,100076.00
2023-02-18T17:37:42.433Z,100076.97
2023-02-18T17:42:42.754Z,100083.81
2023-02-18T17:45:18.032Z,100094.63
2023-02-18T17:47:44.912Z,100091.75
2023-02-18T17:50:11.750Z,100091.31
2023-02-18T17:52:39.470Z,100087.00
2023-02-18T17:57:52.945Z,100095.91
2023-02-18T18:00:29.223Z,100082.69
2023-02-18T18:03:05.612Z,100082.69
2023-02-18T18:05:36.349Z,100087.03
2023-02-18T18:08:04.680Z,100089.34
2023-02-18T18:10:35.836Z,100088.56
2023-02-18T18:13:08.464Z,100087.34
2023-02-18T18:15:44.325Z,100092.53
2023-02-18T18:18:12.033Z,100085.09
2023-02-18T18:20:40.389Z,100082.38
2023-02-18T18:23:10.916Z,100093.34
2023-02-18T18:25:38.871Z,100088.41
2023-02-18T18:28:07.066Z,100096.50
2023-02-18T18:30:37.614Z,100086.75
2023-02-18T18:33:13.453Z,100085.88
2023-02-18T18:35:40.208Z,100089.88
2023-02-18T18:38:06.938Z,100101.44
2023-02-18T18:40:36.117Z,100092.13
2023-02-18T18:43:02.945Z,100090.22
2023-02-18T18:45:37.467Z,100092.28
2023-02-18T18:48:09.601Z,100091.09
2023-02-18T18:50:47.203Z,100093.53
2023-02-18T18:55:43.369Z,100084.84
2023-02-18T18:58:10.401Z,100084.44
2023-02-18T19:00:40.341Z,100087.91
2023-02-18T19:03:07.585Z,100087.34
2023-02-18T19:05:37.567Z,100085.28
2023-02-18T19:08:05.189Z,100080.09
2023-02-18T19:10:47.295Z,100093.09
2023-02-18T19:13:18.898Z,100086.69
2023-02-18T19:15:46.220Z,100086.69
2023-02-18T19:18:15.795Z,100087.34
2023-02-18T19:20:43.129Z,100089.44
2023-02-18T19:23:10.468Z,100097.13
2023-02-18T19:25:38.969Z,100088.16
2023-02-18T19:28:07.193Z,100085.28
2023-02-18T19:30:36.488Z,100090.72
2023-02-18T19:33:06.021Z,100087.56
2023-02-18T19:35:33.378Z,100091.94
2023-02-18T19:38:01.047Z,100089.03
2023-02-18T19:40:30.717Z,100092.38
2023-02-18T19:42:58.100Z,100091.16
2023-02-18T19:45:24.960Z,100094.88
2023-02-18T19:47:56.255Z,100084.94
2023-02-18T19:50:24.777Z,100088.28
2023-02-18T19:52:56.696Z,100087.84
2023-02-18T19:55:23.936Z,100087.09
2023-02-18T19:57:51.873Z,100092.81
2023-02-18T20:00:21.104Z,100088.75
2023-02-18T20:02:48.429Z,100082.53
2023-02-18T20:05:15.263Z,100082.13
2023-02-18T20:07:42.776Z,100083.38
2023-02-18T20:10:20.518Z,100080.47
2023-02-18T20:12:52.705Z,100080.03
2023-02-18T20:15:28.956Z,100093.75
2023-02-18T20:17:56.400Z,100082.34
2023-02-18T20:20:23.565Z,100086.50
2023-02-18T20:22:51.310Z,100079.88
2023-02-18T20:25:18.460Z,100086.69
2023-02-18T20:27:59.765Z,100073.00
2023-02-18T20:30:28.880Z,100082.88
2023-02-18T20:32:55.748Z,100085.78
2023-02-18T20:35:22.650Z,100077.50
2023-02-18T20:37:49.393Z,100077.16
2023-02-18T20:42:42.955Z,100077.88
2023-02-18T20:45:10.378Z,100084.13
2023-02-18T20:47:37.680Z,100077.88
2023-02-18T20:50:04.609Z,100079.56
2023-02-18T20:52:33.635Z,100079.97
2023-02-18T20:55:01.417Z,100080.56
2023-02-18T20:57:28.285Z,100081.59
2023-02-18T20:59:55.282Z,100086.56
2023-02-18T21:02:22.046Z,100087.19
2023-02-18T21:04:52.037Z,100085.34
2023-02-18T21:07:18.802Z,100094.03
2023-02-18T21:09:48.930Z,100093.59
2023-02-18T21:12:15.662Z,100083.91
2023-02-18T21:14:42.480Z,100092.38
2023-02-18T21:17:09.710Z,100087.78
2023-02-18T21:19:36.473Z,100092.75
2023-02-18T21:22:03.203Z,100080.72
2023-02-18T21:24:29.892Z,100085.47
2023-02-18T21:26:56.605Z,100085.72
2023-02-18T21:29:23.627Z,100080.34
2023-02-18T21:31:50.605Z,100072.69
2023-02-18T21:34:18.295Z,100072.00
2023-02-18T21:36:45.021Z,100075.72
2023-02-18T21:39:12.206Z,100073.47
2023-02-18T21:41:41.005Z,100088.22
2023-02-18T21:44:12.584Z,100079.06
2023-02-18T21:46:40.081Z,100077.19
2023-02-18T21:49:09.832Z,100078.66
2023-02-18T21:51:57.563Z,100072.41
2023-02-18T21:54:28.818Z,100067.59
2023-02-18T21:56:56.940Z,100069.09
2023-02-18T21:59:27.114Z,100078.19
2023-02-18T22:01:54.339Z,100082.72
2023-02-18T22:04:21.477Z,100088.94
2023-02-18T22:06:48.257Z,100070.34
2023-02-18T22:09:15.441Z,100077.97
2023-02-18T22:11:43.099Z,100067.03
2023-02-18T22:14:11.502Z,100074.06
2023-02-18T22:16:38.877Z,100071.13
2023-02-18T22:19:06.615Z,100063.31
2023-02-18T22:21:34.213Z,100071.78
2023-02-18T22:24:01.002Z,100050.03
2023-02-18T22:26:28.080Z,100052.09
2023-02-18T22:29:10.796Z,100057.91
2023-02-18T22:31:37.736Z,100048.81
2023-02-18T22:34:05.948Z,100054.97
2023-02-18T22:36:33.215Z,100057.91
2023-02-18T22:39:03.255Z,100053.75
2023-02-18T22:41:35.552Z,100041.53
2023-02-18T22:44:06.144Z,100049.22
2023-02-18T22:46:35.131Z,100045.88
2023-02-18T22:49:04.831Z,100051.28
2023-02-18T22:51:35.344Z,100043.84
2023-02-18T22:54:02.425Z,100040.09
2023-02-18T22:56:32.842Z,100051.91
2023-02-18T22:58:59.854Z,100039.22
2023-02-18T23:01:32.957Z,100042.56
2023-02-18T23:04:08.273Z,100041.78
2023-02-18T23:06:35.983Z,100041.72
2023-02-18T23:09:04.024Z,100043.84
2023-02-18T23:11:30.900Z,100035.94
2023-02-18T23:17:02.374Z,100029.28
2023-02-18T23:19:31.199Z,100030.53
2023-02-18T23:21:58.402Z,100014.63
2023-02-18T23:24:25.300Z,100011.94
2023-02-18T23:26:52.782Z,100008.59
2023-02-18T23:29:20.891Z,100014.56
2023-02-18T23:31:47.750Z,100018.09
2023-02-18T23:36:44.322Z,100022.25
2023-02-18T23:39:13.630Z,100014.81
2023-02-18T23:41:40.507Z,100007.50
2023-02-18T23:44:10.563Z,100015.59
2023-02-18T23:46:37.889Z,100023.22
2023-02-18T23:49:05.829Z,100023.03
2023-02-18T23:51:33.494Z,100021.56
2023-02-18T23:54:03.599Z,100010.19
2023-02-18T23:56:30.372Z,100009.31
2023-02-18T23:59:00.645Z,100005.59
